createdAt,value
2018-06-17T00:01:01.268Z,101050.59
2018-06-17T00:03:30.230Z,101056.22
2018-06-17T00:05:59.203Z,101063.23
2018-06-17T00:08:28.246Z,101059.48
2018-06-17T00:10:57.225Z,101058.02
2018-06-17T00:13:26.205Z,101046.75
2018-06-17T00:15:55.176Z,101053.25
2018-06-17T00:18:24.170Z,101050.89
2018-06-17T00:20:53.170Z,101058.62
2018-06-17T00:23:25.280Z,101055.62
2018-06-17T00:25:54.224Z,101062.12
2018-06-17T00:28:23.146Z,101061.98
2018-06-17T00:30:52.104Z,101065.74
2018-06-17T00:33:21.045Z,101067.63
2018-06-17T00:35:50.064Z,101072.59
2018-06-17T00:38:19.065Z,101068.31
2018-06-17T00:40:48.070Z,101066.77
2018-06-17T00:43:17.256Z,101063.55
2018-06-17T00:45:49.438Z,101063.87
2018-06-17T00:48:18.374Z,101063.20
2018-06-17T00:50:47.334Z,101059.14
2018-06-17T00:53:16.245Z,101060.06
2018-06-17T00:55:45.224Z,101062.46
2018-06-17T00:58:14.196Z,101056.16
2018-06-17T01:00:43.188Z,101047.91
2018-06-17T01:03:12.152Z,101043.33
2018-06-17T01:05:41.094Z,101045.55
2018-06-17T01:08:10.072Z,101045.21
2018-06-17T01:10:39.093Z,101039.42
2018-06-17T01:13:08.082Z,101037.74
2018-06-17T01:15:37.013Z,101036.69
2018-06-17T01:18:06.035Z,101034.13
2018-06-17T01:20:35.063Z,101027.96
2018-06-17T01:23:04.039Z,101024.56
2018-06-17T01:25:32.971Z,101029.27
2018-06-17T01:28:02.034Z,101042.44
2018-06-17T01:30:30.911Z,101040.91
2018-06-17T01:32:59.806Z,101042.44
2018-06-17T01:35:28.691Z,101045.05
2018-06-17T01:37:57.588Z,101048.63
2018-06-17T01:40:26.492Z,101042.81
2018-06-17T01:42:55.367Z,101038.73
2018-06-17T01:45:24.257Z,101042.67
2018-06-17T01:47:53.141Z,101038.20
2018-06-17T01:50:40.119Z,101037.52
2018-06-17T01:53:08.944Z,101032.89
2018-06-17T01:55:37.772Z,101034.80
2018-06-17T01:58:06.638Z,101034.66
2018-06-17T02:00:36.712Z,101028.81
2018-06-17T02:03:23.233Z,101026.30
2018-06-17T02:06:09.718Z,101023.08
2018-06-17T02:08:56.194Z,101025.95
2018-06-17T02:11:43.805Z,101023.39
2018-06-17T02:14:30.647Z,101029.05
2018-06-17T02:16:59.480Z,101031.45
2018-06-17T02:19:28.372Z,101030.73
2018-06-17T02:21:57.239Z,101033.31
2018-06-17T02:24:26.259Z,101026.83
2018-06-17T02:26:55.148Z,101031.95
2018-06-17T02:29:23.998Z,101031.29
2018-06-17T02:31:56.165Z,101035.88
2018-06-17T02:34:24.994Z,101038.61
2018-06-17T02:36:53.897Z,101035.55
2018-06-17T02:39:22.721Z,101037.61
2018-06-17T02:41:51.580Z,101039.46
2018-06-17T02:44:20.464Z,101042.38
2018-06-17T02:47:07.241Z,101043.06
2018-06-17T02:49:38.781Z,101040.65
2018-06-17T02:52:26.460Z,101036.20
2018-06-17T02:54:55.314Z,101045.08
2018-06-17T02:57:24.189Z,101046.31
2018-06-17T02:59:53.105Z,101056.75
2018-06-17T03:02:21.985Z,101049.88
2018-06-17T03:04:50.822Z,101051.38
2018-06-17T03:07:19.987Z,101048.65
2018-06-17T03:09:48.857Z,101044.36
2018-06-17T03:12:21.338Z,101047.78
2018-06-17T03:14:50.163Z,101044.71
2018-06-17T03:17:19.006Z,101051.81
2018-06-17T03:19:47.886Z,101050.11
2018-06-17T03:22:16.721Z,101054.66
2018-06-17T03:25:03.266Z,101046.33
2018-06-17T03:27:49.828Z,101046.44
2018-06-17T03:30:46.513Z,101051.41
2018-06-17T03:33:54.160Z,101057.95
2018-06-17T03:36:23.039Z,101056.75
2018-06-17T03:38:51.872Z,101054.02
2018-06-17T03:41:20.743Z,101047.19
2018-06-17T03:43:49.613Z,101043.80
2018-06-17T03:46:18.455Z,101045.84
2018-06-17T03:48:47.314Z,101051.73
2018-06-17T03:51:16.197Z,101047.48
2018-06-17T03:57:32.924Z,101058.75
2018-06-17T04:00:01.772Z,101054.28
2018-06-17T04:02:33.259Z,101048.95
2018-06-17T04:05:20.293Z,101047.32
2018-06-17T04:07:49.214Z,101046.52
2018-06-17T04:10:18.148Z,101043.95
2018-06-17T04:12:46.942Z,101046.11
2018-06-17T04:18:56.948Z,101055.75
2018-06-17T04:21:25.802Z,101054.08
2018-06-17T04:23:54.651Z,101061.93
2018-06-17T04:26:23.499Z,101051.03
2018-06-17T04:28:52.373Z,101058.05
2018-06-17T04:31:21.226Z,101051.23
2018-06-17T04:33:50.104Z,101053.50
2018-06-17T04:36:18.934Z,101054.67
2018-06-17T04:39:05.335Z,101053.48
2018-06-17T04:41:34.183Z,101054.84
2018-06-17T04:44:03.046Z,101050.59
2018-06-17T04:46:31.899Z,101051.95
2018-06-17T04:49:00.755Z,101060.87
2018-06-17T04:51:29.626Z,101057.75
2018-06-17T04:53:58.472Z,101065.45
2018-06-17T04:56:27.359Z,101069.05
2018-06-17T04:58:56.209Z,101063.41
2018-06-17T05:01:25.341Z,101065.45
2018-06-17T05:03:54.220Z,101068.52
2018-06-17T05:06:23.108Z,101073.53
2018-06-17T05:08:51.954Z,101072.80
2018-06-17T05:11:20.871Z,101075.38
2018-06-17T05:13:49.809Z,101074.02
2018-06-17T05:16:18.675Z,101074.02
2018-06-17T05:18:47.502Z,101083.58
2018-06-17T05:21:16.375Z,101064.44
2018-06-17T05:23:48.035Z,101072.47
2018-06-17T05:26:16.869Z,101080.51
2018-06-17T05:28:45.719Z,101074.69
2018-06-17T05:31:14.576Z,101080.80
2018-06-17T05:33:43.538Z,101083.94
2018-06-17T05:36:12.330Z,101080.52
2018-06-17T05:38:41.316Z,101095.22
2018-06-17T05:41:10.138Z,101089.16
2018-06-17T05:43:39.062Z,101086.82
2018-06-17T05:46:08.024Z,101092.28
2018-06-17T05:48:36.910Z,101086.81
2018-06-17T05:51:05.846Z,101091.58
2018-06-17T05:53:34.767Z,101085.59
2018-06-17T05:56:03.713Z,101095.52
2018-06-17T05:58:32.491Z,101100.12
2018-06-17T06:01:01.422Z,101090.25
2018-06-17T06:03:30.278Z,101102.87
2018-06-17T06:05:59.301Z,101094.14
2018-06-17T06:08:28.153Z,101098.20
2018-06-17T06:10:57.009Z,101098.37
2018-06-17T06:13:25.913Z,101099.88
2018-06-17T06:15:54.803Z,101099.50
2018-06-17T06:18:23.676Z,101101.63
2018-06-17T06:20:52.532Z,101098.44
2018-06-17T06:23:21.438Z,101102.13
2018-06-17T06:25:50.213Z,101101.41
2018-06-17T06:28:19.071Z,101100.84
2018-06-17T06:30:54.837Z,101111.13
2018-06-17T06:33:23.637Z,101106.98
2018-06-17T06:35:52.499Z,101109.55
2018-06-17T06:38:21.390Z,101115.92
2018-06-17T06:40:50.269Z,101117.12
2018-06-17T06:43:19.125Z,101118.97
2018-06-17T06:45:47.967Z,101116.30
2018-06-17T06:48:17.084Z,101123.38
2018-06-17T06:50:45.950Z,101117.80
2018-06-17T06:53:14.951Z,101112.79
2018-06-17T06:55:43.809Z,101123.75
2018-06-17T06:58:12.717Z,101132.23
2018-06-17T07:00:41.611Z,101127.33
2018-06-17T07:03:46.919Z,101133.70
2018-06-17T07:06:52.383Z,101139.69
2018-06-17T07:09:58.111Z,101133.25
2018-06-17T07:12:27.030Z,101144.96
2018-06-17T07:14:56.965Z,101144.22
2018-06-17T07:18:02.717Z,101151.43
2018-06-17T07:20:31.557Z,101154.93
2018-06-17T07:23:00.399Z,101155.66
2018-06-17T07:25:59.079Z,101152.69
2018-06-17T07:29:34.584Z,101152.56
2018-06-17T07:32:03.451Z,101155.25
2018-06-17T07:34:32.311Z,101158.06
2018-06-17T07:37:01.245Z,101165.47
2018-06-17T07:40:11.689Z,101157.12
2018-06-17T07:42:40.580Z,101167.41
2018-06-17T07:45:09.498Z,101163.92
2018-06-17T07:47:38.345Z,101163.16
2018-06-17T07:50:44.094Z,101168.97
2018-06-17T07:53:19.825Z,101164.33
2018-06-17T07:55:51.499Z,101165.81
2018-06-17T07:58:20.365Z,101164.19
2018-06-17T08:00:49.242Z,101171.53
2018-06-17T08:03:18.061Z,101179.62
2018-06-17T08:05:46.938Z,101168.83
2018-06-17T08:08:15.797Z,101176.53
2018-06-17T08:10:44.687Z,101176.00
2018-06-17T08:13:13.559Z,101188.20
2018-06-17T08:15:42.438Z,101173.20
2018-06-17T08:18:11.328Z,101171.36
2018-06-17T08:20:40.224Z,101175.58
2018-06-17T08:23:09.147Z,101183.51
2018-06-17T08:25:37.983Z,101196.37
2018-06-17T08:28:06.867Z,101197.80
2018-06-17T08:30:35.897Z,101190.82
2018-06-17T08:33:04.661Z,101206.80
2018-06-17T08:35:33.497Z,101194.85
2018-06-17T08:38:02.442Z,101195.63
2018-06-17T08:41:25.933Z,101195.38
2018-06-17T08:43:54.799Z,101199.47
2018-06-17T08:46:23.701Z,101197.06
2018-06-17T08:48:52.580Z,101205.14
2018-06-17T08:51:21.467Z,101203.35
2018-06-17T08:53:50.360Z,101212.63
2018-06-17T08:56:19.186Z,101204.70
2018-06-17T08:58:48.034Z,101201.86
2018-06-17T09:01:16.929Z,101214.45
2018-06-17T09:03:45.790Z,101206.81
2018-06-17T09:06:14.648Z,101206.18
2018-06-17T09:08:43.520Z,101214.06
2018-06-17T09:11:12.593Z,101219.07
2018-06-17T09:13:41.452Z,101214.96
2018-06-17T09:16:10.314Z,101220.34
2018-06-17T09:18:39.187Z,101225.97
2018-06-17T09:21:08.059Z,101224.84
2018-06-17T09:23:37.142Z,101225.67
2018-06-17T09:26:06.179Z,101229.47
2018-06-17T09:28:35.013Z,101220.11
2018-06-17T09:31:03.874Z,101226.56
2018-06-17T09:33:32.797Z,101222.30
2018-06-17T09:36:01.612Z,101220.20
2018-06-17T09:38:30.439Z,101220.01
2018-06-17T09:40:59.296Z,101226.37
2018-06-17T09:43:28.155Z,101226.28
2018-06-17T09:45:57.040Z,101229.27
2018-06-17T09:52:01.537Z,101234.77
2018-06-17T09:54:30.380Z,101249.84
2018-06-17T09:56:59.231Z,101238.75
2018-06-17T09:59:28.121Z,101244.47
2018-06-17T10:01:56.969Z,101251.06
2018-06-17T10:04:25.829Z,101253.30
2018-06-17T10:06:54.740Z,101242.67
2018-06-17T10:09:23.564Z,101249.02
2018-06-17T10:12:10.047Z,101249.96
2018-06-17T10:14:38.869Z,101249.58
2018-06-17T10:17:08.113Z,101242.00
2018-06-17T10:19:37.032Z,101245.62
2018-06-17T10:22:05.882Z,101245.59
2018-06-17T10:24:34.710Z,101250.84
2018-06-17T10:27:03.545Z,101246.46
2018-06-17T10:29:32.472Z,101248.08
2018-06-17T10:32:01.294Z,101243.53
2018-06-17T10:34:30.300Z,101237.98
2018-06-17T10:36:59.160Z,101245.71
2018-06-17T10:39:28.020Z,101246.52
2018-06-17T10:41:56.855Z,101244.82
2018-06-17T10:44:25.847Z,101245.75
2018-06-17T10:46:54.622Z,101259.27
2018-06-17T10:49:23.668Z,101258.56
2018-06-17T10:51:52.874Z,101267.95
2018-06-17T10:54:21.894Z,101263.56
2018-06-17T10:56:53.928Z,101264.98
2018-06-17T10:59:22.991Z,101273.31
2018-06-17T11:01:51.909Z,101267.86
2018-06-17T11:04:21.419Z,101270.09
2018-06-17T11:06:50.546Z,101262.94
2018-06-17T11:09:19.484Z,101262.94
2018-06-17T11:11:48.514Z,101264.63
2018-06-17T11:14:17.659Z,101269.84
2018-06-17T11:16:46.647Z,101268.71
2018-06-17T11:19:15.704Z,101265.34
2018-06-17T11:21:44.729Z,101265.68
2018-06-17T11:24:13.872Z,101276.27
2018-06-17T11:26:42.889Z,101280.45
2018-06-17T11:29:11.862Z,101273.13
2018-06-17T11:31:40.855Z,101282.62
2018-06-17T11:34:10.015Z,101276.47
2018-06-17T11:36:38.944Z,101274.47
2018-06-17T11:39:09.573Z,101276.64
2018-06-17T11:41:38.460Z,101283.73
2018-06-17T11:44:07.494Z,101285.66
2018-06-17T11:46:36.541Z,101301.77
2018-06-17T11:49:05.784Z,101304.28
2018-06-17T11:51:34.926Z,101296.41
2018-06-17T11:54:04.022Z,101301.23
2018-06-17T11:56:33.014Z,101310.48
2018-06-17T11:59:02.047Z,101309.37
2018-06-17T12:01:31.264Z,101315.77
2018-06-17T12:04:00.312Z,101315.87
2018-06-17T12:06:29.428Z,101313.59
2018-06-17T12:08:58.509Z,101319.23
2018-06-17T12:11:27.606Z,101319.36
2018-06-17T12:13:56.591Z,101323.48
2018-06-17T12:16:25.771Z,101328.34
2018-06-17T12:18:54.762Z,101326.14
2018-06-17T12:21:24.913Z,101330.16
2018-06-17T12:23:54.108Z,101321.86
2018-06-17T12:26:23.216Z,101328.51
2018-06-17T12:28:52.374Z,101327.75
2018-06-17T12:31:21.486Z,101324.61
2018-06-17T12:33:50.503Z,101329.92
2018-06-17T12:36:19.453Z,101331.76
2018-06-17T12:38:48.592Z,101323.15
2018-06-17T12:41:17.577Z,101332.07
2018-06-17T12:43:46.448Z,101326.02
2018-06-17T12:46:15.299Z,101327.05
2018-06-17T12:48:44.143Z,101323.78
2018-06-17T12:51:13.005Z,101326.86
2018-06-17T12:53:41.847Z,101310.40
2018-06-17T12:56:10.696Z,101311.44
2018-06-17T12:58:39.579Z,101304.52
2018-06-17T13:01:08.453Z,101308.75
2018-06-17T13:03:37.329Z,101306.30
2018-06-17T13:06:06.255Z,101307.38
2018-06-17T13:08:35.144Z,101311.89
2018-06-17T13:11:04.052Z,101314.89
2018-06-17T13:13:33.058Z,101315.67
2018-06-17T13:16:01.948Z,101320.31
2018-06-17T13:18:30.778Z,101318.05
2018-06-17T13:20:59.603Z,101326.25
2018-06-17T13:23:28.494Z,101323.64
2018-06-17T13:25:58.645Z,101333.62
2018-06-17T13:28:27.530Z,101324.31
2018-06-17T13:30:56.396Z,101337.44
2018-06-17T13:33:25.230Z,101329.68
2018-06-17T13:35:54.075Z,101346.63
2018-06-17T13:38:22.936Z,101343.88
2018-06-17T13:40:51.815Z,101337.70
2018-06-17T13:43:20.643Z,101337.36
2018-06-17T13:45:49.475Z,101350.84
2018-06-17T13:48:21.199Z,101339.63
2018-06-17T13:50:50.092Z,101339.44
2018-06-17T13:53:18.958Z,101335.89
2018-06-17T13:55:47.857Z,101339.63
2018-06-17T13:58:16.666Z,101346.28
2018-06-17T14:00:45.508Z,101343.97
2018-06-17T14:03:14.336Z,101341.67
2018-06-17T14:05:43.166Z,101351.49
2018-06-17T14:08:12.005Z,101354.70
2018-06-17T14:10:40.912Z,101349.68
2018-06-17T14:13:09.817Z,101353.42
2018-06-17T14:15:38.675Z,101350.48
2018-06-17T14:18:07.553Z,101347.73
2018-06-17T14:20:36.397Z,101339.38
2018-06-17T14:23:05.330Z,101340.75
2018-06-17T14:25:34.169Z,101341.59
2018-06-17T14:28:03.101Z,101336.36
2018-06-17T14:30:32.078Z,101342.88
2018-06-17T14:33:04.653Z,101346.24
2018-06-17T14:35:33.531Z,101349.47
2018-06-17T14:38:02.391Z,101347.78
2018-06-17T14:40:50.360Z,101342.67
2018-06-17T14:43:37.148Z,101347.53
2018-06-17T14:46:24.044Z,101353.37
2018-06-17T14:49:10.744Z,101357.66
2018-06-17T14:52:05.617Z,101355.63
2018-06-17T14:54:43.156Z,101353.81
2018-06-17T14:57:12.083Z,101352.36
2018-06-17T14:59:41.179Z,101351.83
2018-06-17T15:02:10.101Z,101349.34
2018-06-17T15:04:38.997Z,101356.56
2018-06-17T15:07:07.977Z,101360.02
2018-06-17T15:09:36.864Z,101354.80
2018-06-17T15:12:05.740Z,101361.50
2018-06-17T15:14:34.593Z,101358.05
2018-06-17T15:17:09.786Z,101360.38
2018-06-17T15:19:38.665Z,101362.17
2018-06-17T15:22:07.556Z,101362.52
2018-06-17T15:24:36.375Z,101357.27
2018-06-17T15:27:05.344Z,101366.30
2018-06-17T15:29:34.172Z,101355.91
2018-06-17T15:32:20.547Z,101364.69
2018-06-17T15:35:17.397Z,101352.13
2018-06-17T15:38:06.740Z,101360.35
2018-06-17T15:40:53.005Z,101357.97
2018-06-17T15:43:21.856Z,101358.27
2018-06-17T15:45:50.759Z,101360.35
2018-06-17T15:48:19.750Z,101360.09
2018-06-17T15:50:48.622Z,101367.83
2018-06-17T15:53:17.502Z,101388.92
2018-06-17T15:55:46.401Z,101387.73
2018-06-17T15:58:18.324Z,101389.90
2018-06-17T16:00:47.259Z,101400.41
2018-06-17T16:03:16.034Z,101398.50
2018-06-17T16:05:44.964Z,101401.31
2018-06-17T16:08:13.825Z,101407.95
2018-06-17T16:10:42.834Z,101405.79
2018-06-17T16:13:29.413Z,101415.91
2018-06-17T16:16:15.985Z,101415.16
2018-06-17T16:19:02.945Z,101424.18
2018-06-17T16:21:31.809Z,101439.34
2018-06-17T16:24:00.819Z,101431.79
2018-06-17T16:26:29.829Z,101438.17
2018-06-17T16:28:58.785Z,101446.72
2018-06-17T16:31:27.700Z,101446.93
2018-06-17T16:33:56.559Z,101449.63
2018-06-17T16:36:25.469Z,101445.73
2018-06-17T16:38:54.461Z,101440.60
2018-06-17T16:41:23.373Z,101444.03
2018-06-17T16:43:52.214Z,101450.55
2018-06-17T16:46:21.112Z,101451.75
2018-06-17T16:48:49.993Z,101443.35
2018-06-17T16:51:36.595Z,101440.27
2018-06-17T16:54:43.392Z,101446.77
2018-06-17T16:57:30.393Z,101443.17
2018-06-17T17:00:05.880Z,101445.39
2018-06-17T17:02:34.740Z,101442.48
2018-06-17T17:05:03.628Z,101440.61
2018-06-17T17:07:32.448Z,101435.82
2018-06-17T17:10:01.397Z,101431.03
2018-06-17T17:12:30.220Z,101431.03
2018-06-17T17:14:59.100Z,101432.00
2018-06-17T17:17:27.993Z,101427.73
2018-06-17T17:19:56.866Z,101420.91
2018-06-17T17:22:25.708Z,101428.11
2018-06-17T17:24:54.560Z,101430.16
2018-06-17T17:27:23.519Z,101427.22
2018-06-17T17:29:52.369Z,101426.67
2018-06-17T17:32:39.225Z,101436.67
2018-06-17T17:35:42.448Z,101432.55
2018-06-17T17:38:48.357Z,101434.09
2018-06-17T17:41:17.086Z,101426.58
2018-06-17T17:43:45.928Z,101428.43
2018-06-17T17:46:32.713Z,101428.28
2018-06-17T17:49:01.581Z,101428.97
2018-06-17T17:51:30.408Z,101425.85
2018-06-17T17:53:59.872Z,101432.67
2018-06-17T17:56:29.131Z,101429.59
2018-06-17T17:58:57.988Z,101432.30
2018-06-17T18:01:29.743Z,101432.12
2018-06-17T18:03:58.979Z,101432.48
2018-06-17T18:06:27.897Z,101427.68
2018-06-17T18:08:56.730Z,101427.52
2018-06-17T18:11:25.595Z,101434.35
2018-06-17T18:13:54.494Z,101438.81
2018-06-17T18:16:23.312Z,101432.80
2018-06-17T18:18:52.137Z,101437.76
2018-06-17T18:21:20.953Z,101437.39
2018-06-17T18:23:49.903Z,101434.69
2018-06-17T18:26:36.535Z,101438.45
2018-06-17T18:29:23.171Z,101433.44
2018-06-17T18:32:10.067Z,101433.77
2018-06-17T18:34:56.447Z,101440.43
2018-06-17T18:37:25.339Z,101442.92
2018-06-17T18:39:54.168Z,101445.90
2018-06-17T18:42:23.043Z,101457.13
2018-06-17T18:44:51.936Z,101450.36
2018-06-17T18:47:20.796Z,101454.49
2018-06-17T18:49:49.683Z,101449.84
2018-06-17T18:52:18.535Z,101449.83
2018-06-17T18:54:47.442Z,101452.05
2018-06-17T18:57:16.290Z,101454.83
2018-06-17T18:59:45.225Z,101454.60
2018-06-17T19:02:14.050Z,101466.14
2018-06-17T19:04:42.950Z,101465.09
2018-06-17T19:07:13.172Z,101462.67
2018-06-17T19:09:59.830Z,101456.85
2018-06-17T19:12:46.918Z,101455.99
2018-06-17T19:15:33.302Z,101456.87
2018-06-17T19:18:13.101Z,101447.64
2018-06-17T19:20:41.977Z,101450.87
2018-06-17T19:23:10.877Z,101449.16
2018-06-17T19:25:39.759Z,101440.94
2018-06-17T19:28:08.596Z,101448.13
2018-06-17T19:30:37.546Z,101451.70
2018-06-17T19:33:06.390Z,101451.38
2018-06-17T19:35:35.299Z,101445.73
2018-06-17T19:38:04.157Z,101444.72
2018-06-17T19:40:33.145Z,101451.53
2018-06-17T19:43:02.002Z,101447.44
2018-06-17T19:45:30.992Z,101450.03
2018-06-17T19:47:59.920Z,101451.20
2018-06-17T19:50:46.790Z,101453.61
2018-06-17T19:53:33.287Z,101460.73
2018-06-17T19:56:19.861Z,101460.31
2018-06-17T19:59:06.655Z,101461.31
2018-06-17T20:01:35.524Z,101464.98
2018-06-17T20:04:04.369Z,101476.78
2018-06-17T20:06:33.520Z,101479.04
2018-06-17T20:09:02.216Z,101470.54
2018-06-17T20:11:31.060Z,101477.73
2018-06-17T20:13:59.961Z,101471.59
2018-06-17T20:16:28.742Z,101478.76
2018-06-17T20:18:57.638Z,101479.30
2018-06-17T20:21:26.464Z,101478.94
2018-06-17T20:23:55.326Z,101485.31
2018-06-17T20:26:24.193Z,101485.30
2018-06-17T20:28:53.079Z,101479.48
2018-06-17T20:31:22.033Z,101475.31
2018-06-17T20:34:08.533Z,101473.98
2018-06-17T20:36:55.219Z,101466.65
2018-06-17T20:39:42.153Z,101475.75
2018-06-17T20:42:28.462Z,101471.42
2018-06-17T20:44:57.411Z,101476.20
2018-06-17T20:47:26.241Z,101472.98
2018-06-17T20:49:55.112Z,101478.78
2018-06-17T20:52:25.211Z,101478.76
2018-06-17T20:54:54.080Z,101484.71
2018-06-17T20:57:22.925Z,101482.22
2018-06-17T20:59:51.787Z,101489.38
2018-06-17T21:02:20.867Z,101490.56
2018-06-17T21:04:49.722Z,101493.65
2018-06-17T21:07:18.584Z,101485.92
2018-06-17T21:09:47.492Z,101487.09
2018-06-17T21:12:16.257Z,101489.48
2018-06-17T21:14:45.241Z,101497.95
2018-06-17T21:17:14.161Z,101497.78
2018-06-17T21:20:00.738Z,101499.06
2018-06-17T21:22:47.310Z,101490.81
2018-06-17T21:25:33.654Z,101474.20
2018-06-17T21:28:02.943Z,101475.38
2018-06-17T21:30:31.846Z,101477.33
2018-06-17T21:33:00.724Z,101483.16
2018-06-17T21:35:32.753Z,101486.20
2018-06-17T21:38:01.609Z,101483.81
2018-06-17T21:40:30.462Z,101482.89
2018-06-17T21:42:59.515Z,101489.58
2018-06-17T21:45:28.416Z,101494.69
2018-06-17T21:47:57.553Z,101487.85
2018-06-17T21:50:26.436Z,101489.92
2018-06-17T21:52:55.467Z,101481.17
2018-06-17T21:55:24.355Z,101481.88
2018-06-17T21:57:56.105Z,101480.70
2018-06-17T22:00:24.988Z,101482.03
2018-06-17T22:02:53.859Z,101489.57
2018-06-17T22:05:22.701Z,101483.05
2018-06-17T22:08:09.090Z,101478.91
2018-06-17T22:10:55.766Z,101484.19
2018-06-17T22:13:24.666Z,101483.86
2018-06-17T22:16:11.492Z,101485.89
2018-06-17T22:18:43.381Z,101480.94
2018-06-17T22:21:12.216Z,101487.55
2018-06-17T22:23:41.245Z,101481.88
2018-06-17T22:26:10.416Z,101482.08
2018-06-17T22:28:39.267Z,101482.03
2018-06-17T22:31:08.171Z,101489.73
2018-06-17T22:33:37.096Z,101490.03
2018-06-17T22:36:05.953Z,101487.06
2018-06-17T22:38:34.795Z,101469.62
2018-06-17T22:41:05.058Z,101475.41
2018-06-17T22:43:33.998Z,101479.81
2018-06-17T22:46:02.869Z,101478.44
2018-06-17T22:48:31.753Z,101485.43
2018-06-17T22:51:00.708Z,101484.02
2018-06-17T22:54:06.360Z,101485.38
2018-06-17T22:56:53.153Z,101484.45
2018-06-17T22:59:40.038Z,101489.78
2018-06-17T23:02:26.516Z,101487.05
2018-06-17T23:05:13.119Z,101491.11
2018-06-17T23:07:59.703Z,101487.15
2018-06-17T23:10:28.610Z,101475.39
2018-06-17T23:12:57.433Z,101465.53
2018-06-17T23:15:26.306Z,101474.39
2018-06-17T23:17:55.187Z,101472.73
2018-06-17T23:20:24.047Z,101477.33
2018-06-17T23:22:56.057Z,101482.80
2018-06-17T23:25:24.919Z,101481.94
2018-06-17T23:27:53.763Z,101479.20
2018-06-17T23:30:22.609Z,101476.67
2018-06-17T23:32:51.479Z,101482.84
2018-06-17T23:35:20.354Z,101485.02
2018-06-17T23:37:49.261Z,101486.95
2018-06-17T23:40:18.229Z,101475.30
2018-06-17T23:42:47.127Z,101470.34
2018-06-17T23:45:16.126Z,101474.48
2018-06-17T23:48:02.768Z,101467.09
2018-06-17T23:50:49.128Z,101459.59
2018-06-17T23:53:35.966Z,101468.66
2018-06-17T23:56:08.237Z,101480.50
2018-06-17T23:58:38.272Z,101483.75
